Time;durP1;ratioP1;P1;durP2;ratioP2;P2;SDS_P1;SDS_P2;PMS_P1;PMS_P2;Temp;Humidity;BMP_temperature;BMP_pressure;BME280_temperature;BME280_humidity;BME280_pressure;Samples;Min_cycle;Max_cycle;Signal;HPM_P1;HPM_P2
2021/12/21 00:00:32;;;;;;;2.00;1.85;;;-2.80;99.90;;;;;;5063713;28;20071;-83
2021/12/21 00:02:58;;;;;;;0.80;0.80;;;-2.80;99.90;;;;;;5050853;28;20055;-84
2021/12/21 00:05:28;;;;;;;1.48;1.38;;;-2.80;99.90;;;;;;5079695;28;20040;-83
2021/12/21 00:07:56;;;;;;;1.63;1.52;;;-2.80;99.90;;;;;;5045273;28;20063;-84
2021/12/21 00:10:24;;;;;;;1.42;1.33;;;-2.90;99.90;;;;;;5077773;28;20104;-84
2021/12/21 00:13:25;;;;;;;1.15;1.15;;;;;;;;;;5069392;28;20447;-83
2021/12/21 00:23:34;;;;;;;0.98;0.98;;;-2.90;99.90;;;;;;5088278;28;20504;-83
2021/12/21 00:26:03;;;;;;;1.00;1.00;;;-2.90;99.90;;;;;;5065909;28;20135;-82
2021/12/21 00:28:34;;;;;;;0.98;0.98;;;-2.90;99.90;;;;;;5066437;28;20048;-82
2021/12/21 00:30:59;;;;;;;1.00;1.00;;;-2.90;99.90;;;;;;5050413;28;20203;-83
2021/12/21 00:33:25;;;;;;;1.02;1.00;;;-2.90;99.90;;;;;;5066394;28;20492;-83
2021/12/21 00:35:50;;;;;;;1.00;1.00;;;-2.90;99.90;;;;;;5049857;28;20067;-84
2021/12/21 00:38:16;;;;;;;1.30;1.20;;;-2.90;99.90;;;;;;5068692;28;20473;-83
2021/12/21 00:40:42;;;;;;;2.22;1.40;;;-2.90;99.90;;;;;;5065149;28;20146;-83
2021/12/21 00:43:07;;;;;;;1.45;1.35;;;-3.00;99.90;;;;;;5042339;28;20098;-83
2021/12/21 00:45:33;;;;;;;1.42;1.33;;;-3.00;99.90;;;;;;5066929;28;20043;-82
2021/12/21 00:47:58;;;;;;;1.10;1.10;;;-3.00;99.90;;;;;;5066267;28;20066;-83
2021/12/21 00:50:24;;;;;;;1.10;1.10;;;-3.10;99.90;;;;;;5058328;28;20044;-83
2021/12/21 00:52:52;;;;;;;1.65;1.55;;;-3.10;99.90;;;;;;5070847;28;20083;-83
2021/12/21 00:55:20;;;;;;;2.75;2.55;;;-3.20;99.90;;;;;;5068138;28;20059;-83
2021/12/21 00:57:46;;;;;;;1.85;1.52;;;-3.30;99.90;;;;;;5055501;28;20520;-83
2021/12/21 01:00:14;;;;;;;1.15;1.13;;;-3.30;99.90;;;;;;5056288;28;20047;-83
2021/12/21 01:02:41;;;;;;;2.00;1.55;;;-3.40;99.90;;;;;;5067625;28;20044;-83
2021/12/21 01:05:15;;;;;;;1.58;1.48;;;-3.40;99.90;;;;;;5066373;28;20040;-83
2021/12/21 01:07:44;;;;;;;1.50;1.40;;;-3.40;99.90;;;;;;5065874;28;20051;-84
2021/12/21 01:10:46;;;;;;;1.25;1.20;;;-3.40;99.90;;;;;;5060346;28;20044;-82
2021/12/21 01:18:20;;;;;;;2.33;2.22;;;-3.40;99.90;;;;;;5081392;28;20049;-82
2021/12/21 01:23:50;;;;;;;1.25;1.15;;;-3.50;99.90;;;;;;5069203;28;20146;-83
2021/12/21 01:31:36;;;;;;;1.00;1.00;;;-3.50;99.90;;;;;;5065983;28;20095;-82
2021/12/21 01:34:36;;;;;;;1.08;1.08;;;-3.50;99.90;;;;;;5054088;28;20050;-82
2021/12/21 01:36:55;;;;;;;1.75;1.65;;;-3.50;99.90;;;;;;5064791;28;20041;-82
2021/12/21 01:49:41;;;;;;;1.00;1.00;;;-3.50;99.90;;;;;;5069507;28;20044;-82
2021/12/21 01:52:11;;;;;;;1.10;1.10;;;-3.50;99.90;;;;;;5052166;28;20055;-83
2021/12/21 01:54:37;;;;;;;1.00;1.00;;;-3.50;99.90;;;;;;5062455;28;20040;-84
2021/12/21 01:57:04;;;;;;;1.40;1.30;;;-3.50;99.90;;;;;;5066112;28;20052;-83
2021/12/21 01:59:30;;;;;;;1.05;0.95;;;-3.50;99.90;;;;;;5065838;28;20057;-83
2021/12/21 02:01:56;;;;;;;1.33;1.23;;;-3.50;99.90;;;;;;5063736;28;20653;-83
2021/12/21 02:04:22;;;;;;;0.93;0.93;;;-3.50;99.90;;;;;;5066192;28;20048;-83
2021/12/21 02:06:49;;;;;;;1.17;1.15;;;-3.50;99.90;;;;;;5069898;28;20116;-84
2021/12/21 02:09:16;;;;;;;1.05;1.05;;;-3.50;99.90;;;;;;5070163;28;20079;-83
2021/12/21 02:11:42;;;;;;;1.00;1.00;;;-3.50;99.90;;;;;;5064745;28;20104;-83
2021/12/21 02:14:09;;;;;;;0.98;0.98;;;-3.60;99.90;;;;;;5066937;28;20121;-83
2021/12/21 02:16:48;;;;;;;1.08;1.08;;;-3.60;99.90;;;;;;5064068;28;20078;-83
2021/12/21 02:19:39;;;;;;;0.90;0.90;;;-3.60;99.90;;;;;;5057471;28;20067;-83
2021/12/21 02:22:09;;;;;;;1.02;1.02;;;-3.70;99.90;;;;;;5064569;28;20072;-83
2021/12/21 02:24:47;;;;;;;1.10;1.10;;;-3.60;99.90;;;;;;5066786;28;20119;-82
2021/12/21 02:27:27;;;;;;;1.10;1.10;;;-3.70;99.90;;;;;;5066125;28;20037;-83
2021/12/21 02:29:53;;;;;;;1.10;1.10;;;-3.70;99.90;;;;;;5066050;28;20143;-84
2021/12/21 02:32:20;;;;;;;1.10;1.10;;;-3.70;99.90;;;;;;5067800;28;20052;-83
2021/12/21 02:34:46;;;;;;;1.33;1.23;;;-3.70;99.90;;;;;;5047018;28;20063;-83
2021/12/21 02:37:12;;;;;;;1.00;1.00;;;-3.70;99.90;;;;;;5047916;28;20048;-83
2021/12/21 02:39:38;;;;;;;1.10;1.10;;;-3.60;99.90;;;;;;5064465;28;20130;-83
2021/12/21 02:42:05;;;;;;;1.00;1.00;;;-3.70;99.90;;;;;;5073095;28;20099;-84
2021/12/21 02:44:31;;;;;;;1.02;1.02;;;-3.70;99.90;;;;;;5049928;28;20059;-83
2021/12/21 02:46:56;;;;;;;1.00;1.00;;;-3.70;99.90;;;;;;5086785;28;20036;-83
2021/12/21 02:49:22;;;;;;;1.38;1.27;;;-3.70;99.90;;;;;;5082867;28;20408;-82
2021/12/21 02:51:48;;;;;;;1.00;1.00;;;-3.80;99.90;;;;;;5063355;28;20129;-83
2021/12/21 02:54:23;;;;;;;4.10;3.20;;;-3.80;99.90;;;;;;5087955;28;20631;-84
2021/12/21 02:56:58;;;;;;;1.67;1.58;;;-3.90;99.90;;;;;;5063514;28;20439;-83
2021/12/21 02:59:27;;;;;;;1.10;1.10;;;-3.80;99.90;;;;;;5062933;28;20055;-83
2021/12/21 03:01:53;;;;;;;1.10;1.10;;;-3.90;99.90;;;;;;5052566;28;20092;-83
2021/12/21 03:04:19;;;;;;;1.10;1.10;;;-3.90;99.90;;;;;;5054319;28;20041;-83
2021/12/21 03:11:56;;;;;;;1.13;1.10;;;-3.90;99.90;;;;;;5063428;28;20048;-84
2021/12/21 03:14:22;;;;;;;1.60;1.50;;;-4.00;99.90;;;;;;5063188;28;20100;-83
2021/12/21 03:16:47;;;;;;;1.48;1.38;;;-4.00;99.90;;;;;;5048058;28;20037;-84
2021/12/21 03:19:13;;;;;;;1.20;1.10;;;-4.10;99.90;;;;;;5063872;28;20044;-84
2021/12/21 03:21:39;;;;;;;1.10;1.10;;;-4.10;99.90;;;;;;5063296;28;20064;-84
2021/12/21 03:24:05;;;;;;;1.10;1.10;;;-4.10;99.90;;;;;;5063365;28;20028;-83
2021/12/21 03:26:31;;;;;;;1.00;1.00;;;-4.10;99.90;;;;;;5064045;28;20104;-84
2021/12/21 03:28:57;;;;;;;1.50;1.40;;;-4.10;99.90;;;;;;5063407;28;20037;-83
2021/12/21 03:31:23;;;;;;;1.80;1.70;;;-4.10;99.90;;;;;;5070026;28;20047;-84
2021/12/21 03:33:49;;;;;;;1.67;1.58;;;-4.10;99.90;;;;;;5068424;28;20052;-84
2021/12/21 03:36:16;;;;;;;1.10;1.10;;;-4.10;99.90;;;;;;5047041;28;20036;-84
2021/12/21 03:38:52;;;;;;;1.52;1.40;;;-4.10;99.90;;;;;;5065397;28;20036;-84
2021/12/21 03:41:18;;;;;;;1.35;1.25;;;-4.10;99.90;;;;;;5058160;28;20541;-83
2021/12/21 03:43:45;;;;;;;1.10;1.10;;;-4.20;99.90;;;;;;5066053;28;20044;-84
2021/12/21 03:46:14;;;;;;;2.58;2.38;;;-4.20;99.90;;;;;;5064559;28;20092;-83
2021/12/21 03:48:43;;;;;;;18.63;2.22;;;-4.20;99.90;;;;;;5067828;28;20591;-84
2021/12/21 03:51:10;;;;;;;1.25;1.17;;;-4.20;99.90;;;;;;5062121;28;20119;-83
2021/12/21 03:53:37;;;;;;;1.38;1.27;;;-4.20;99.90;;;;;;5064984;28;20041;-83
2021/12/21 03:56:19;;;;;;;1.10;1.10;;;-4.20;99.90;;;;;;5062758;28;20064;-82
2021/12/21 03:58:45;;;;;;;1.10;1.10;;;-4.20;99.90;;;;;;5061929;28;20048;-82
2021/12/21 04:01:11;;;;;;;1.13;1.10;;;;;;;;;;5069922;28;20128;-83
2021/12/21 04:03:37;;;;;;;1.30;1.20;;;-4.20;99.90;;;;;;5065857;28;20100;-84
2021/12/21 04:06:03;;;;;;;1.30;1.20;;;-4.20;99.90;;;;;;5071321;28;20057;-83
2021/12/21 04:08:28;;;;;;;1.10;1.10;;;-3.70;99.90;;;;;;5085812;28;20164;-82
2021/12/21 04:10:54;;;;;;;1.30;1.20;;;-4.20;99.90;;;;;;5075190;28;20036;-83
2021/12/21 04:13:20;;;;;;;1.10;1.10;;;-4.20;99.90;;;;;;5085502;28;20048;-83
2021/12/21 04:15:49;;;;;;;1.00;1.00;;;-4.20;99.90;;;;;;5058297;28;20045;-83
2021/12/21 04:18:18;;;;;;;0.90;0.90;;;-4.20;99.90;;;;;;5069625;28;20036;-83
2021/12/21 04:20:44;;;;;;;1.15;1.10;;;-4.20;99.90;;;;;;5067343;28;20045;-83
2021/12/21 04:23:09;;;;;;;1.10;1.10;;;-4.20;99.90;;;;;;5065940;28;20052;-83
2021/12/21 04:25:35;;;;;;;1.00;1.00;;;-4.20;99.90;;;;;;5066550;28;20120;-83
2021/12/21 04:28:01;;;;;;;1.10;1.10;;;-4.20;99.90;;;;;;5066416;28;20041;-83
2021/12/21 04:30:27;;;;;;;1.00;1.00;;;-4.20;99.90;;;;;;5069331;28;20036;-82
2021/12/21 04:32:53;;;;;;;1.05;1.05;;;-4.20;99.90;;;;;;5054480;28;20203;-83
2021/12/21 04:35:20;;;;;;;1.40;1.30;;;-4.20;99.90;;;;;;5066113;28;20067;-82
2021/12/21 04:37:55;;;;;;;1.00;1.00;;;-4.30;99.90;;;;;;5066974;28;20079;-82
2021/12/21 04:40:25;;;;;;;1.30;1.20;;;-4.20;99.90;;;;;;5068851;28;20127;-83
2021/12/21 04:42:51;;;;;;;1.52;1.42;;;-4.20;99.90;;;;;;5046615;28;20033;-82
2021/12/21 04:45:16;;;;;;;1.17;1.15;;;-4.20;99.90;;;;;;5068262;28;20103;-84
2021/12/21 04:47:42;;;;;;;1.27;1.17;;;-4.20;99.90;;;;;;5066401;28;20028;-82
2021/12/21 04:50:11;;;;;;;1.30;1.20;;;-4.30;99.90;;;;;;5072393;28;20123;-82
2021/12/21 04:52:36;;;;;;;1.17;1.10;;;-4.30;99.90;;;;;;5064403;28;20048;-82
2021/12/21 04:55:03;;;;;;;1.40;1.30;;;-4.30;99.90;;;;;;5077901;28;20080;-82
2021/12/21 04:57:28;;;;;;;0.90;0.90;;;-4.20;99.90;;;;;;5065508;28;20108;-83
2021/12/21 04:59:54;;;;;;;1.10;1.10;;;-4.30;99.90;;;;;;5064801;28;20051;-82
2021/12/21 05:02:20;;;;;;;1.02;1.02;;;-4.30;99.90;;;;;;5060910;28;20059;-84
2021/12/21 05:04:45;;;;;;;1.15;1.10;;;-4.60;99.90;;;;;;5058221;28;20047;-83
2021/12/21 05:07:12;;;;;;;0.95;0.95;;;-4.30;99.90;;;;;;5063204;28;20044;-82
2021/12/21 05:09:43;;;;;;;1.08;1.08;;;-4.30;99.90;;;;;;5081561;28;20045;-82
2021/12/21 05:12:11;;;;;;;1.00;1.00;;;-4.30;99.90;;;;;;5040934;28;20033;-83
2021/12/21 05:14:37;;;;;;;2.28;2.08;;;-4.30;99.90;;;;;;5067555;28;20098;-83
2021/12/21 05:17:03;;;;;;;1.10;1.10;;;-4.30;99.90;;;;;;5065314;28;20040;-82
2021/12/21 05:19:28;;;;;;;1.30;1.20;;;-4.30;99.90;;;;;;5065173;28;20052;-82
2021/12/21 05:21:56;;;;;;;1.73;1.63;;;-4.30;99.90;;;;;;5059850;28;20100;-83
2021/12/21 05:24:22;;;;;;;1.40;1.30;;;-4.30;99.90;;;;;;5081213;28;20060;-83
2021/12/21 05:26:48;;;;;;;1.30;1.20;;;-4.30;99.90;;;;;;5037945;28;20146;-83
2021/12/21 05:29:13;;;;;;;1.55;1.45;;;-4.40;99.90;;;;;;5053740;28;20041;-83
2021/12/21 05:31:54;;;;;;;1.17;1.13;;;-4.00;99.90;;;;;;5081872;27;20422;-82
2021/12/21 05:34:20;;;;;;;0.93;0.93;;;-4.30;99.90;;;;;;5076042;28;20064;-82
2021/12/21 05:36:45;;;;;;;1.20;1.10;;;-4.30;99.90;;;;;;5075228;28;20131;-83
2021/12/21 05:39:21;;;;;;;1.08;1.08;;;-4.40;99.90;;;;;;5075807;28;20124;-83
2021/12/21 05:41:51;;;;;;;1.05;1.05;;;-4.30;99.90;;;;;;5076120;28;20055;-82
2021/12/21 05:44:19;;;;;;;1.10;1.10;;;-4.30;99.90;;;;;;5076071;28;20063;-82
2021/12/21 05:46:46;;;;;;;0.90;0.90;;;-4.40;99.90;;;;;;5073844;28;20059;-83
2021/12/21 05:49:13;;;;;;;1.27;1.17;;;-4.40;99.90;;;;;;5075528;28;20052;-83
2021/12/21 05:51:38;;;;;;;1.30;1.20;;;-4.40;99.90;;;;;;5058080;28;20394;-83
2021/12/21 05:54:04;;;;;;;1.30;1.20;;;-4.40;99.90;;;;;;5090551;28;20037;-83
2021/12/21 05:56:30;;;;;;;1.00;1.00;;;-4.40;99.90;;;;;;5075122;28;20049;-82
2021/12/21 05:58:55;;;;;;;1.00;1.00;;;-4.40;99.90;;;;;;5075486;28;20112;-83
2021/12/21 06:01:21;;;;;;;1.25;1.17;;;-4.50;99.90;;;;;;5074975;28;20037;-83
2021/12/21 06:03:47;;;;;;;1.10;1.10;;;-4.40;99.90;;;;;;5075715;28;20064;-82
2021/12/21 06:06:15;;;;;;;1.10;1.10;;;-4.50;99.90;;;;;;5093642;28;20088;-83
2021/12/21 06:08:42;;;;;;;1.40;1.30;;;-4.50;99.90;;;;;;5092813;28;20358;-82
2021/12/21 06:11:09;;;;;;;1.27;1.20;;;-4.50;99.90;;;;;;5076245;28;20045;-82
2021/12/21 06:14:36;;;;;;;1.10;1.10;;;-4.50;99.90;;;;;;5077593;28;20044;-83
2021/12/21 06:27:11;;;;;;;1.25;1.17;;;-4.50;99.90;;;;;;5075863;28;20049;-84
2021/12/21 06:29:37;;;;;;;1.15;1.10;;;-4.50;99.90;;;;;;5072967;28;20095;-83
2021/12/21 06:32:03;;;;;;;1.10;1.10;;;-4.50;99.90;;;;;;5074450;28;20076;-82
2021/12/21 06:34:29;;;;;;;1.10;1.10;;;-4.60;99.90;;;;;;5077108;28;20060;-83
2021/12/21 06:36:55;;;;;;;1.42;1.33;;;-4.60;99.90;;;;;;5075406;28;20088;-82
2021/12/21 06:39:21;;;;;;;1.30;1.20;;;-4.60;99.90;;;;;;5072455;28;20068;-81
2021/12/21 06:41:47;;;;;;;1.13;1.10;;;-4.60;99.90;;;;;;5060956;28;20045;-82
2021/12/21 06:44:14;;;;;;;1.33;1.23;;;-4.60;99.90;;;;;;5058897;28;20045;-81
2021/12/21 06:46:49;;;;;;;1.40;1.30;;;-4.60;99.90;;;;;;5062837;28;20428;-81
2021/12/21 06:52:00;;;;;;;1.10;1.10;;;-4.70;99.90;;;;;;5061981;28;20053;-81
2021/12/21 06:54:27;;;;;;;1.10;1.10;;;-4.60;99.90;;;;;;5059714;28;20041;-82
2021/12/21 06:56:52;;;;;;;1.35;1.25;;;-4.60;99.90;;;;;;5055101;28;20037;-82
2021/12/21 06:59:18;;;;;;;1.80;1.70;;;-4.60;99.90;;;;;;5062479;28;20089;-82
2021/12/21 07:01:44;;;;;;;1.20;1.10;;;;;;;;;;5060603;28;20056;-82
2021/12/21 07:04:11;;;;;;;1.00;1.00;;;-4.70;99.90;;;;;;5062299;28;20101;-82
2021/12/21 07:06:40;;;;;;;1.50;1.40;;;-4.70;99.90;;;;;;5063066;28;20069;-81
2021/12/21 07:09:59;;;;;;;1.35;1.25;;;-4.70;99.90;;;;;;5062861;28;20077;-81
2021/12/21 07:12:16;;;;;;;1.15;1.10;;;-4.70;99.90;;;;;;5047128;28;20080;-82
2021/12/21 07:20:11;;;;;;;1.38;1.27;;;-4.70;99.90;;;;;;5060101;28;20049;-82
2021/12/21 07:22:36;;;;;;;1.00;1.00;;;-4.70;99.90;;;;;;5057436;28;20041;-82
2021/12/21 07:25:02;;;;;;;1.35;1.25;;;-4.80;99.90;;;;;;5062364;28;20120;-82
2021/12/21 07:27:28;;;;;;;1.13;1.10;;;-4.80;99.90;;;;;;5070504;28;20141;-82
2021/12/21 07:29:54;;;;;;;1.42;1.33;;;-4.80;99.90;;;;;;5063490;28;20060;-82
2021/12/21 07:32:19;;;;;;;1.10;1.10;;;-4.80;99.90;;;;;;5062271;28;20080;-84
2021/12/21 07:34:45;;;;;;;1.17;1.10;;;-4.80;99.90;;;;;;5048566;28;20056;-80
2021/12/21 07:37:10;;;;;;;1.38;1.27;;;-4.90;99.90;;;;;;5074847;28;20093;-80
2021/12/21 07:39:37;;;;;;;1.27;1.17;;;-4.90;99.90;;;;;;5075979;28;20041;-81
2021/12/21 07:42:04;;;;;;;1.40;1.30;;;-4.90;99.90;;;;;;5059307;28;20053;-81
2021/12/21 07:44:29;;;;;;;1.10;1.10;;;-4.90;99.90;;;;;;5061118;28;20091;-81
2021/12/21 07:46:55;;;;;;;1.30;1.20;;;-4.90;99.90;;;;;;5061889;28;20048;-81
2021/12/21 07:49:21;;;;;;;1.02;1.02;;;-4.90;99.90;;;;;;5053244;28;20063;-81
2021/12/21 07:51:48;;;;;;;1.10;1.10;;;-4.90;99.90;;;;;;5059461;28;20056;-82
2021/12/21 07:54:18;;;;;;;1.20;1.13;;;-4.90;99.90;;;;;;5059162;28;20112;-82
2021/12/21 07:56:44;;;;;;;1.30;1.20;;;-5.00;99.90;;;;;;5061624;28;20146;-82
2021/12/21 07:59:11;;;;;;;1.33;1.23;;;-5.00;99.90;;;;;;5052022;28;20032;-82
2021/12/21 08:01:38;;;;;;;1.33;1.23;;;-4.90;99.90;;;;;;5058773;28;20044;-80
2021/12/21 08:04:07;;;;;;;1.00;1.00;;;-4.90;99.90;;;;;;5061532;28;20045;-81
2021/12/21 08:06:33;;;;;;;1.30;1.20;;;-4.90;99.90;;;;;;5062000;28;20075;-81
2021/12/21 08:09:01;;;;;;;1.15;1.10;;;-4.90;99.90;;;;;;5060766;28;20061;-81
2021/12/21 08:12:12;;;;;;;1.33;1.23;;;-4.80;99.90;;;;;;5061511;28;20549;-81
2021/12/21 08:14:15;;;;;;;1.30;1.20;;;-4.80;99.90;;;;;;5045633;28;20125;-81
2021/12/21 08:16:41;;;;;;;1.30;1.20;;;-4.70;99.90;;;;;;5057798;28;20041;-80
2021/12/21 08:19:06;;;;;;;1.10;1.10;;;-4.70;99.90;;;;;;5059943;28;20080;-81
2021/12/21 08:21:32;;;;;;;0.85;0.85;;;-4.70;99.90;;;;;;5056254;28;20067;-81
2021/12/21 08:23:58;;;;;;;1.10;1.10;;;-4.60;99.90;;;;;;5059356;28;20037;-81
2021/12/21 08:26:24;;;;;;;1.10;1.10;;;-4.60;99.90;;;;;;5059505;28;20048;-81
2021/12/21 08:28:49;;;;;;;1.13;1.10;;;-4.50;99.90;;;;;;5058823;28;20140;-81
2021/12/21 08:31:16;;;;;;;1.00;1.00;;;-4.40;99.90;;;;;;5056522;28;20080;-81
2021/12/21 08:33:43;;;;;;;0.90;0.90;;;-4.40;99.90;;;;;;5056417;28;20067;-81
2021/12/21 08:36:10;;;;;;;1.15;1.10;;;-4.40;99.90;;;;;;5058834;28;20037;-81
2021/12/21 08:38:41;;;;;;;1.40;1.30;;;-4.40;99.90;;;;;;5059530;28;20048;-81
2021/12/21 08:41:07;;;;;;;1.20;1.10;;;-4.30;99.90;;;;;;5058034;28;20405;-81
2021/12/21 08:43:35;;;;;;;0.90;0.90;;;-4.30;99.90;;;;;;5058535;28;20049;-82
2021/12/21 08:46:00;;;;;;;1.23;1.17;;;-4.20;99.90;;;;;;5037706;28;20040;-80
2021/12/21 08:48:27;;;;;;;1.00;1.00;;;-4.20;99.90;;;;;;5056362;28;20080;-81
2021/12/21 08:50:54;;;;;;;1.25;1.17;;;-4.10;99.90;;;;;;5055498;28;20094;-82
2021/12/21 08:53:22;;;;;;;1.27;1.17;;;-4.10;99.90;;;;;;5057552;28;20041;-82
2021/12/21 08:55:48;;;;;;;1.30;1.20;;;-4.00;99.90;;;;;;5054527;28;20044;-82
2021/12/21 08:58:14;;;;;;;1.25;1.17;;;-4.00;99.90;;;;;;5056462;28;20389;-81
2021/12/21 09:00:41;;;;;;;1.30;1.20;;;-4.00;99.90;;;;;;5059487;28;20143;-82
2021/12/21 09:03:08;;;;;;;1.02;1.02;;;-3.90;99.90;;;;;;5059502;28;20033;-82
2021/12/21 09:05:34;;;;;;;1.35;1.25;;;-3.90;99.90;;;;;;5059915;28;20036;-83
2021/12/21 09:08:02;;;;;;;0.88;0.88;;;-3.80;99.90;;;;;;5060384;28;20064;-82
2021/12/21 09:10:29;;;;;;;1.30;1.20;;;-3.80;99.90;;;;;;5060026;28;20076;-81
2021/12/21 09:12:55;;;;;;;1.10;1.10;;;-3.70;99.90;;;;;;5057968;28;20040;-81
2021/12/21 09:15:22;;;;;;;0.90;0.90;;;-3.60;99.90;;;;;;5059460;28;20060;-82
2021/12/21 09:17:48;;;;;;;1.08;1.08;;;-3.70;99.90;;;;;;5050236;28;20065;-82
2021/12/21 09:20:17;;;;;;;1.40;1.30;;;-3.60;99.90;;;;;;5059555;28;20521;-81
2021/12/21 09:22:43;;;;;;;1.92;1.75;;;-3.50;99.90;;;;;;5059167;28;20041;-81
2021/12/21 09:25:10;;;;;;;1.10;1.10;;;-3.50;99.90;;;;;;5059054;28;20032;-82
2021/12/21 09:27:36;;;;;;;1.10;1.10;;;-3.40;99.90;;;;;;5059633;28;20051;-82
2021/12/21 09:30:05;;;;;;;1.50;1.23;;;-3.40;99.90;;;;;;5059180;28;20166;-81
2021/12/21 09:32:31;;;;;;;2.25;2.08;;;-3.40;99.90;;;;;;5057763;28;20048;-81
2021/12/21 09:34:56;;;;;;;1.08;1.08;;;-3.30;99.90;;;;;;5056808;28;20085;-81
2021/12/21 09:37:22;;;;;;;1.33;1.25;;;-3.30;99.90;;;;;;5057475;28;20056;-81
2021/12/21 09:39:51;;;;;;;1.10;1.10;;;-3.20;99.90;;;;;;5054774;28;20037;-81
2021/12/21 09:42:19;;;;;;;1.30;1.20;;;-3.20;99.90;;;;;;5055771;28;20038;-80
2021/12/21 09:44:46;;;;;;;1.83;1.67;;;-3.20;99.90;;;;;;5060324;28;20060;-83
2021/12/21 09:47:13;;;;;;;1.00;1.00;;;-3.10;99.90;;;;;;5056869;28;20056;-81
2021/12/21 09:49:40;;;;;;;1.30;1.20;;;-3.10;99.90;;;;;;5059256;28;20045;-82
2021/12/21 09:52:07;;;;;;;1.13;1.10;;;-3.00;99.90;;;;;;5073868;28;20041;-81
2021/12/21 09:54:34;;;;;;;1.00;1.00;;;-2.90;99.90;;;;;;5051530;28;20124;-81
2021/12/21 09:57:00;;;;;;;1.63;1.52;;;-2.90;99.90;;;;;;5056732;28;20067;-81
2021/12/21 09:59:26;;;;;;;1.00;1.00;;;;;;;;;;5055076;28;20172;-81
2021/12/21 10:01:52;;;;;;;1.00;1.00;;;-2.70;99.90;;;;;;5057786;28;20040;-82
2021/12/21 10:04:18;;;;;;;1.10;1.10;;;-2.60;99.90;;;;;;5058835;28;20051;-82
2021/12/21 10:06:50;;;;;;;1.10;1.10;;;-2.50;99.90;;;;;;5055262;28;20037;-81
2021/12/21 10:09:18;;;;;;;1.10;1.10;;;-2.50;99.90;;;;;;5058342;28;20052;-81
2021/12/21 10:11:47;;;;;;;1.08;1.08;;;-2.50;99.90;;;;;;5059279;28;20048;-82
2021/12/21 10:14:14;;;;;;;0.95;0.95;;;-2.50;99.90;;;;;;5060084;28;20037;-82
2021/12/21 10:16:40;;;;;;;1.38;1.27;;;-2.40;99.90;;;;;;5041519;28;21339;-81
2021/12/21 10:19:06;;;;;;;1.00;1.00;;;-2.40;99.90;;;;;;5060479;28;20049;-84
2021/12/21 10:21:32;;;;;;;1.00;1.00;;;-2.30;99.90;;;;;;5062501;28;20029;-85
2021/12/21 10:23:58;;;;;;;1.00;1.00;;;;;;;;;;5049981;28;20099;-84
2021/12/21 10:26:26;;;;;;;1.00;1.00;;;-2.20;99.90;;;;;;5057271;28;20037;-84
2021/12/21 10:29:01;;;;;;;1.10;1.10;;;-2.20;99.90;;;;;;5044992;28;20036;-86
2021/12/21 10:31:40;;;;;;;1.00;1.00;;;-2.10;99.90;;;;;;5045521;28;20075;-84
2021/12/21 10:34:10;;;;;;;1.20;1.20;;;-2.10;99.90;;;;;;5058638;28;20389;-85
2021/12/21 10:36:41;;;;;;;4.63;2.65;;;-1.90;99.90;;;;;;5059943;28;20111;-84
2021/12/21 10:39:07;;;;;;;1.38;1.27;;;-1.90;99.90;;;;;;5060255;28;20071;-83
2021/12/21 10:41:41;;;;;;;1.10;1.08;;;-1.80;99.90;;;;;;5061391;28;20037;-85
2021/12/21 10:44:08;;;;;;;0.90;0.90;;;-1.70;99.90;;;;;;5060766;28;20162;-83
2021/12/21 10:46:36;;;;;;;1.58;1.40;;;-1.70;99.90;;;;;;5061403;28;20509;-83
2021/12/21 10:49:06;;;;;;;1.02;1.02;;;-1.60;99.90;;;;;;5060267;28;20033;-82
2021/12/21 10:51:31;;;;;;;1.08;1.05;;;-1.50;99.90;;;;;;5061487;28;20069;-83
2021/12/21 10:53:57;;;;;;;1.00;1.00;;;-1.40;99.90;;;;;;5057430;28;20059;-85
2021/12/21 10:56:23;;;;;;;1.85;1.75;;;-1.30;99.90;;;;;;5041955;28;20044;-84
2021/12/21 10:58:48;;;;;;;1.00;1.00;;;-1.20;99.90;;;;;;5056037;28;20041;-84
2021/12/21 11:01:23;;;;;;;1.00;1.00;;;-1.20;99.90;;;;;;5058210;28;20064;-83
2021/12/21 11:03:51;;;;;;;1.00;1.00;;;-1.10;99.90;;;;;;5059075;28;20055;-83
2021/12/21 11:06:32;;;;;;;10.05;2.08;;;-1.10;99.90;;;;;;5058906;28;20041;-84
2021/12/21 11:08:58;;;;;;;1.40;1.30;;;-1.00;99.90;;;;;;5056850;28;20156;-85
2021/12/21 11:11:32;;;;;;;0.98;0.98;;;-1.00;99.90;;;;;;5058267;28;20049;-83
2021/12/21 11:14:14;;;;;;;1.10;1.10;;;-0.80;99.90;;;;;;5059980;28;20056;-85
2021/12/21 11:16:51;;;;;;;1.48;1.38;;;-0.70;99.90;;;;;;5071570;28;20044;-83
2021/12/21 11:19:19;;;;;;;1.00;1.00;;;-0.70;99.90;;;;;;5058912;28;20037;-83
2021/12/21 11:21:46;;;;;;;1.00;1.00;;;-0.60;99.90;;;;;;5058897;28;20049;-84
2021/12/21 11:24:15;;;;;;;0.98;0.98;;;-0.50;99.90;;;;;;5057195;28;20088;-84
2021/12/21 11:26:43;;;;;;;1.17;1.15;;;-0.50;99.90;;;;;;5059743;28;20140;-84
2021/12/21 11:29:12;;;;;;;0.90;0.90;;;-0.40;99.90;;;;;;5043793;28;20045;-84
2021/12/21 11:31:40;;;;;;;1.08;1.08;;;-0.40;99.90;;;;;;5059914;28;20045;-84
2021/12/21 11:34:08;;;;;;;0.88;0.88;;;-0.30;99.90;;;;;;5060401;28;20073;-84
2021/12/21 11:39:21;;;;;;;1.00;1.00;;;-0.20;99.90;;;;;;5057390;28;20048;-83
2021/12/21 11:41:48;;;;;;;0.90;0.90;;;-0.10;99.90;;;;;;5076346;28;20442;-84
2021/12/21 11:44:23;;;;;;;1.10;1.10;;;-0.10;99.90;;;;;;5059258;28;20029;-84
2021/12/21 11:46:59;;;;;;;0.93;0.93;;;-0.10;99.90;;;;;;5050558;28;20060;-84
2021/12/21 11:49:34;;;;;;;0.93;0.93;;;0.00;99.90;;;;;;5055379;28;20040;-84
2021/12/21 11:52:09;;;;;;;1.80;1.70;;;0.10;99.90;;;;;;5055126;28;20037;-83
2021/12/21 11:55:04;;;;;;;0.90;0.90;;;0.10;99.90;;;;;;5056118;28;20198;-83
2021/12/21 11:57:38;;;;;;;0.90;0.90;;;0.10;99.90;;;;;;5055998;28;20064;-84
2021/12/21 12:00:14;;;;;;;;;;;0.10;99.90;;;;;;5060576;28;20041;-83
2021/12/21 12:02:41;;;;;;;1.42;1.33;;;0.10;99.90;;;;;;5054600;28;20023;-84
2021/12/21 12:05:22;;;;;;;0.90;0.90;;;0.10;99.90;;;;;;5053280;28;20037;-82
2021/12/21 12:08:18;;;;;;;0.90;0.90;;;0.10;99.90;;;;;;5056316;28;20067;-84
2021/12/21 12:11:00;;;;;;;1.00;1.00;;;0.40;99.90;;;;;;5047134;28;20168;-84
2021/12/21 12:13:43;;;;;;;0.90;0.90;;;0.30;99.90;;;;;;5054844;28;20045;-84
2021/12/21 12:16:15;;;;;;;1.05;1.05;;;0.40;99.90;;;;;;5056909;28;21092;-84
2021/12/21 12:18:45;;;;;;;1.10;1.10;;;0.40;99.90;;;;;;5058485;28;20083;-85
2021/12/21 12:21:13;;;;;;;1.35;1.25;;;0.50;99.90;;;;;;5052324;28;20044;-85
2021/12/21 12:23:47;;;;;;;0.80;0.80;;;0.60;99.90;;;;;;5035633;28;20040;-85
2021/12/21 12:26:25;;;;;;;0.80;0.80;;;0.60;99.90;;;;;;5056066;28;20143;-85
2021/12/21 12:28:51;;;;;;;1.63;1.52;;;0.70;99.90;;;;;;5058690;28;20040;-85
2021/12/21 12:31:56;;;;;;;3.10;1.30;;;0.60;99.90;;;;;;5049183;28;20051;-84
2021/12/21 12:34:29;;;;;;;1.38;1.27;;;0.70;99.90;;;;;;5053794;28;20116;-86
2021/12/21 12:36:55;;;;;;;1.10;1.10;;;0.70;99.90;;;;;;5071881;28;20072;-85
2021/12/21 12:39:43;;;;;;;1.35;1.25;;;0.70;99.90;;;;;;5054835;28;20113;-85
2021/12/21 12:42:24;;;;;;;0.90;0.90;;;0.70;99.90;;;;;;5055064;28;20064;-85
2021/12/21 12:45:15;;;;;;;0.90;0.90;;;0.70;99.90;;;;;;5055726;28;20097;-85
2021/12/21 12:47:52;;;;;;;0.90;0.90;;;0.70;99.90;;;;;;5040594;28;20041;-86
2021/12/21 12:50:25;;;;;;;0.90;0.90;;;0.70;99.90;;;;;;5059242;28;20049;-85
2021/12/21 12:52:58;;;;;;;0.90;0.90;;;0.70;99.90;;;;;;5058467;28;20045;-84
2021/12/21 12:55:34;;;;;;;1.50;1.40;;;0.60;99.90;;;;;;5040921;28;20045;-85
2021/12/21 12:58:04;;;;;;;0.80;0.80;;;0.70;99.90;;;;;;5042065;28;20213;-82
2021/12/21 13:00:32;;;;;;;0.90;0.90;;;0.70;99.90;;;;;;5058674;28;20053;-85
2021/12/21 13:03:03;;;;;;;1.40;1.30;;;0.70;99.90;;;;;;5058229;28;20036;-85
2021/12/21 13:05:35;;;;;;;1.58;1.48;;;0.70;99.90;;;;;;5059496;28;20037;-84
2021/12/21 13:08:10;;;;;;;0.82;0.82;;;0.70;99.90;;;;;;5037891;28;20068;-84
2021/12/21 13:10:45;;;;;;;1.00;1.00;;;0.70;99.90;;;;;;5060728;28;20530;-85
2021/12/21 13:13:11;;;;;;;3.83;2.13;;;0.80;99.90;;;;;;5059018;28;20044;-84
2021/12/21 13:15:41;;;;;;;0.90;0.90;;;0.70;99.90;;;;;;5058499;28;20045;-84
2021/12/21 13:18:09;;;;;;;0.80;0.80;;;0.80;99.90;;;;;;5059581;28;20091;-84
2021/12/21 13:20:36;;;;;;;0.90;0.90;;;0.80;99.90;;;;;;5072568;28;20053;-86
2021/12/21 13:23:22;;;;;;;0.90;0.90;;;0.80;99.90;;;;;;5035546;28;21032;-85
2021/12/21 13:26:03;;;;;;;0.90;0.90;;;0.80;99.90;;;;;;5052625;28;20079;-84
2021/12/21 13:28:35;;;;;;;0.93;0.93;;;0.80;99.90;;;;;;5056293;28;20040;-85
2021/12/21 13:31:05;;;;;;;0.90;0.90;;;1.00;99.90;;;;;;5047972;28;20041;-86
2021/12/21 13:33:32;;;;;;;0.80;0.80;;;1.00;99.90;;;;;;5040380;28;20059;-87
2021/12/21 13:36:04;;;;;;;1.00;1.00;;;1.00;99.90;;;;;;5049831;28;20102;-85
2021/12/21 13:38:30;;;;;;;1.00;1.00;;;1.00;99.90;;;;;;5051486;28;20172;-86
2021/12/21 13:41:05;;;;;;;0.90;0.90;;;1.10;99.90;;;;;;5057685;28;20095;-86
2021/12/21 13:43:31;;;;;;;0.82;0.82;;;1.10;99.90;;;;;;5058378;28;20033;-85
2021/12/21 13:46:00;;;;;;;1.08;1.02;;;1.00;99.90;;;;;;5067360;28;20108;-85
2021/12/21 13:48:26;;;;;;;0.95;0.95;;;1.00;99.90;;;;;;5054463;28;20061;-86
2021/12/21 13:50:52;;;;;;;0.90;0.90;;;1.00;99.90;;;;;;5056829;28;20079;-85
2021/12/21 13:53:19;;;;;;;1.08;1.08;;;0.90;99.90;;;;;;5062406;28;20063;-86
2021/12/21 13:55:49;;;;;;;1.13;1.10;;;0.90;99.90;;;;;;5056342;28;20041;-84
2021/12/21 13:58:15;;;;;;;0.90;0.90;;;0.80;99.90;;;;;;5059249;28;20075;-85